createdAt,value
2022-10-14T00:04:10.655Z,13.00
2022-10-14T00:09:16.043Z,13.03
2022-10-14T00:14:23.474Z,13.87
2022-10-14T00:19:30.611Z,13.80
2022-10-14T00:24:35.983Z,13.97
2022-10-14T00:29:41.515Z,13.40
2022-10-14T00:34:47.137Z,14.80
2022-10-14T00:39:56.904Z,13.97
2022-10-14T00:45:07.294Z,14.20
2022-10-14T00:50:16.062Z,21.40
2022-10-14T00:55:21.697Z,18.63
2022-10-14T01:00:27.448Z,17.17
2022-10-14T01:05:35.903Z,14.57
2022-10-14T01:10:53.502Z,14.57
2022-10-14T01:16:20.225Z,13.30
2022-10-14T01:21:45.659Z,13.80
2022-10-14T01:27:01.487Z,14.63
2022-10-14T01:32:15.789Z,13.70
2022-10-14T01:37:24.404Z,12.93
2022-10-14T01:42:34.509Z,12.63
2022-10-14T01:47:42.544Z,13.57
2022-10-14T01:52:59.028Z,13.93
2022-10-14T01:58:07.276Z,14.77
2022-10-14T02:03:15.955Z,14.47
2022-10-14T02:08:39.533Z,14.50
2022-10-14T02:14:00.088Z,14.33
2022-10-14T02:19:26.500Z,13.87
2022-10-14T02:24:35.089Z,12.67
2022-10-14T02:29:43.838Z,12.80
2022-10-14T02:34:53.167Z,13.80
2022-10-14T02:40:03.384Z,14.80
2022-10-14T02:45:11.801Z,13.57
2022-10-14T02:50:19.235Z,13.40
2022-10-14T02:55:24.835Z,13.43
2022-10-14T03:00:30.365Z,13.90
2022-10-14T03:05:36.470Z,12.90
2022-10-14T03:10:42.808Z,12.83
2022-10-14T03:15:50.646Z,12.77
2022-10-14T03:20:57.037Z,15.93
2022-10-14T03:26:04.285Z,18.77
2022-10-14T03:31:11.706Z,17.83
2022-10-14T03:36:18.959Z,17.70
2022-10-14T03:41:26.500Z,17.00
2022-10-14T03:46:32.924Z,16.43
2022-10-14T03:51:38.955Z,16.77
2022-10-14T03:56:46.802Z,17.23
2022-10-14T04:01:53.639Z,16.60
2022-10-14T04:07:02.871Z,14.67
2022-10-14T04:12:09.203Z,13.33
2022-10-14T04:17:22.429Z,12.60
2022-10-14T04:22:30.115Z,12.70
2022-10-14T04:27:37.118Z,13.17
2022-10-14T04:32:44.360Z,12.90
2022-10-14T04:37:50.201Z,14.67
2022-10-14T04:43:03.409Z,14.93
2022-10-14T04:48:10.566Z,16.80
2022-10-14T04:53:21.924Z,17.60
2022-10-14T04:58:26.561Z,15.67
2022-10-14T05:03:32.464Z,16.23
2022-10-14T05:08:39.036Z,16.50
2022-10-14T05:13:46.342Z,15.97
2022-10-14T05:18:53.943Z,19.15
2022-10-14T05:24:00.988Z,17.30
2022-10-14T05:29:08.214Z,17.03
2022-10-14T05:34:15.446Z,17.03
2022-10-14T05:39:21.080Z,16.43
2022-10-14T05:44:26.806Z,18.03
2022-10-14T05:49:32.443Z,17.20
2022-10-14T05:54:39.199Z,16.60
2022-10-14T05:59:45.932Z,17.87
2022-10-14T06:04:52.998Z,17.43
2022-10-14T06:09:58.663Z,16.77
2022-10-14T06:15:04.770Z,17.53
2022-10-14T06:20:11.461Z,17.33
2022-10-14T06:25:17.160Z,17.20
2022-10-14T06:30:22.786Z,17.20
2022-10-14T06:35:28.741Z,15.93
2022-10-14T06:40:34.234Z,17.30
2022-10-14T06:45:39.871Z,17.43
2022-10-14T06:50:45.697Z,13.90
2022-10-14T06:55:53.333Z,13.83
2022-10-14T07:01:11.666Z,14.03
2022-10-14T07:06:17.319Z,13.03
2022-10-14T07:11:22.850Z,11.83
2022-10-14T07:16:28.802Z,12.17
2022-10-14T07:21:35.503Z,12.40
2022-10-14T07:26:41.166Z,11.23
2022-10-14T07:31:46.813Z,12.40
2022-10-14T07:36:52.287Z,11.80
2022-10-14T07:41:57.833Z,12.53
2022-10-14T07:47:03.426Z,12.13
2022-10-14T07:52:09.414Z,11.97
2022-10-14T07:57:15.207Z,12.37
2022-10-14T08:02:21.212Z,10.73
2022-10-14T08:07:27.108Z,11.07
2022-10-14T08:12:32.571Z,11.57
2022-10-14T08:17:38.731Z,11.63
2022-10-14T08:22:44.128Z,10.90
2022-10-14T08:27:52.606Z,11.97
2022-10-14T08:33:00.189Z,11.17
2022-10-14T08:38:05.592Z,11.33
2022-10-14T08:43:28.846Z,10.30
2022-10-14T08:48:35.844Z,10.97
2022-10-14T08:53:47.165Z,9.93
2022-10-14T08:58:54.582Z,9.53
2022-10-14T09:04:11.787Z,9.00
2022-10-14T09:09:35.664Z,9.10
2022-10-14T09:14:47.781Z,8.27
2022-10-14T09:20:05.367Z,9.17
2022-10-14T09:25:18.903Z,9.00
2022-10-14T09:30:24.375Z,9.40
2022-10-14T09:35:32.881Z,9.90
2022-10-14T09:40:43.980Z,9.60
2022-10-14T09:46:01.192Z,9.77
2022-10-14T09:51:12.468Z,10.03
2022-10-14T09:56:21.256Z,9.30
2022-10-14T10:01:29.698Z,9.27
2022-10-14T10:06:38.132Z,8.83
2022-10-14T10:11:43.919Z,8.70
2022-10-14T10:21:58.337Z,8.80
2022-10-14T10:27:08.407Z,8.43
2022-10-14T10:32:20.104Z,8.50
2022-10-14T10:37:32.072Z,8.40
2022-10-14T10:42:46.131Z,8.30
2022-10-14T10:47:54.577Z,8.67
2022-10-14T10:53:13.931Z,8.10
2022-10-14T10:58:35.639Z,7.43
2022-10-14T11:03:49.934Z,7.87
2022-10-14T11:09:19.083Z,7.80
2022-10-14T11:14:48.757Z,8.37
2022-10-14T11:20:02.971Z,7.40
2022-10-14T11:25:23.845Z,6.13
2022-10-14T11:30:34.917Z,7.27
2022-10-14T11:35:46.085Z,5.53
2022-10-14T11:41:03.540Z,6.77
2022-10-14T11:46:15.444Z,6.53
2022-10-14T11:51:36.104Z,8.13
2022-10-14T11:56:47.705Z,7.83
2022-10-14T12:01:56.200Z,6.97
2022-10-14T12:07:07.328Z,7.00
2022-10-14T12:12:15.770Z,7.23
2022-10-14T12:17:24.709Z,6.57
2022-10-14T12:22:32.395Z,5.83
2022-10-14T12:27:39.527Z,6.40
2022-10-14T12:33:06.057Z,6.80
2022-10-14T12:38:13.525Z,6.50
2022-10-14T12:43:29.912Z,6.70
2022-10-14T12:48:37.231Z,6.17
2022-10-14T12:53:51.737Z,7.93
2022-10-14T12:59:02.216Z,7.37
2022-10-14T13:04:14.998Z,7.37
2022-10-14T13:09:33.741Z,7.47
2022-10-14T13:15:00.181Z,7.43
2022-10-14T13:20:07.361Z,7.53
2022-10-14T13:25:19.084Z,8.47
2022-10-14T13:30:34.163Z,9.27
2022-10-14T13:35:52.101Z,9.97
2022-10-14T13:40:59.337Z,10.30
2022-10-14T13:46:09.686Z,9.20
2022-10-14T13:51:31.803Z,10.33
2022-10-14T13:56:32.097Z,10.63
2022-10-14T14:01:39.979Z,10.17
2022-10-14T14:07:02.993Z,9.93
2022-10-14T14:11:56.819Z,10.43
2022-10-14T14:17:05.339Z,10.60
2022-10-14T14:22:16.836Z,10.17
2022-10-14T14:27:26.796Z,9.47
2022-10-14T14:32:33.890Z,9.40
2022-10-14T14:37:55.284Z,10.30
2022-10-14T14:42:55.129Z,9.73
2022-10-14T14:48:06.098Z,9.47
2022-10-14T14:53:25.246Z,9.57
2022-10-14T14:58:52.919Z,9.70
2022-10-14T15:04:11.969Z,10.43
2022-10-14T15:09:14.163Z,9.13
2022-10-14T15:14:35.698Z,8.43
2022-10-14T15:19:41.469Z,8.40
2022-10-14T15:25:01.404Z,9.13
2022-10-14T15:30:38.274Z,8.93
2022-10-14T15:35:45.302Z,8.70
2022-10-14T15:40:51.592Z,9.10
2022-10-14T15:46:18.483Z,8.83
2022-10-14T15:51:25.218Z,8.80
2022-10-14T15:56:32.066Z,9.17
2022-10-14T16:01:41.229Z,8.73
2022-10-14T16:06:47.389Z,9.20
2022-10-14T16:11:54.504Z,8.80
2022-10-14T16:17:02.743Z,8.83
2022-10-14T16:22:08.202Z,8.40
2022-10-14T16:27:15.682Z,7.80
2022-10-14T16:32:21.327Z,8.77
2022-10-14T16:37:27.536Z,8.60
2022-10-14T16:42:33.070Z,8.77
2022-10-14T16:47:39.146Z,8.33
2022-10-14T16:53:05.989Z,8.67
2022-10-14T16:58:12.656Z,7.53
2022-10-14T17:03:18.359Z,7.60
2022-10-14T17:08:24.709Z,7.77
2022-10-14T17:13:31.860Z,8.00
2022-10-14T17:18:37.887Z,8.00
2022-10-14T17:23:45.597Z,8.90
2022-10-14T17:28:51.951Z,8.17
2022-10-14T17:33:57.854Z,9.03
2022-10-14T17:39:03.447Z,10.07
2022-10-14T17:44:09.667Z,10.17
2022-10-14T17:49:16.110Z,11.03
2022-10-14T17:54:21.827Z,10.07
2022-10-14T17:59:27.533Z,9.63
2022-10-14T18:04:33.300Z,9.90
2022-10-14T18:09:38.773Z,9.40
2022-10-14T18:14:44.627Z,13.62
2022-10-14T18:19:52.391Z,11.43
2022-10-14T18:24:57.448Z,10.47
2022-10-14T18:30:03.012Z,10.90
2022-10-14T18:35:09.039Z,9.33
2022-10-14T18:40:16.259Z,11.10
2022-10-14T18:45:21.797Z,10.30
2022-10-14T18:50:27.330Z,9.17
2022-10-14T18:55:32.724Z,9.93
2022-10-14T19:00:39.322Z,10.17
2022-10-14T19:05:44.939Z,10.83
2022-10-14T19:10:51.213Z,10.77
2022-10-14T19:16:04.775Z,10.17
2022-10-14T19:21:14.537Z,10.73
2022-10-14T19:26:22.989Z,12.03
2022-10-14T19:31:30.810Z,11.23
2022-10-14T19:36:38.936Z,9.90
2022-10-14T19:41:46.674Z,10.70
2022-10-14T19:46:52.265Z,11.13
2022-10-14T19:51:57.773Z,10.10
2022-10-14T19:57:03.489Z,11.03
2022-10-14T20:02:10.924Z,11.23
2022-10-14T20:07:16.609Z,11.47
2022-10-14T20:12:22.813Z,10.63
2022-10-14T20:17:28.750Z,10.13
2022-10-14T20:22:34.436Z,9.83
2022-10-14T20:27:40.139Z,9.67
2022-10-14T20:32:45.750Z,10.77
2022-10-14T20:37:52.423Z,10.07
2022-10-14T20:42:58.635Z,9.47
2022-10-14T20:48:04.280Z,11.27
2022-10-14T20:53:09.889Z,13.13
2022-10-14T20:58:15.423Z,10.80
2022-10-14T21:03:20.895Z,10.83
2022-10-14T21:08:26.421Z,10.17
2022-10-14T21:13:32.433Z,10.17
2022-10-14T21:18:37.889Z,10.93
2022-10-14T21:23:43.360Z,11.03
2022-10-14T21:28:49.220Z,10.33
2022-10-14T21:34:05.041Z,11.43
2022-10-14T21:39:11.374Z,11.47
2022-10-14T21:44:19.858Z,11.60
2022-10-14T21:49:25.398Z,11.20
2022-10-14T21:54:30.925Z,10.77
2022-10-14T21:59:36.393Z,11.80
2022-10-14T22:04:41.871Z,11.63
2022-10-14T22:09:47.329Z,11.60
2022-10-14T22:14:52.926Z,11.37
2022-10-14T22:19:59.319Z,11.33
2022-10-14T22:25:05.209Z,11.63
2022-10-14T22:30:11.792Z,11.33
2022-10-14T22:35:17.448Z,12.03
2022-10-14T22:40:22.905Z,13.17
2022-10-14T22:45:28.386Z,12.63
2022-10-14T22:50:36.250Z,12.97
2022-10-14T22:55:41.734Z,11.83
2022-10-14T23:00:47.481Z,12.57
2022-10-14T23:05:52.946Z,14.00
2022-10-14T23:11:00.539Z,13.63
2022-10-14T23:16:08.419Z,13.73
2022-10-14T23:21:16.790Z,13.03
2022-10-14T23:26:24.751Z,13.47
2022-10-14T23:31:33.251Z,13.27
2022-10-14T23:36:38.920Z,13.37
2022-10-14T23:41:44.926Z,14.27
2022-10-14T23:46:50.548Z,13.60
2022-10-14T23:51:56.937Z,13.83
2022-10-14T23:57:02.405Z,13.93
